createdAt,value
2019-06-10T00:02:17.654Z,75.00
2019-06-10T00:04:47.993Z,75.30
2019-06-10T00:07:18.375Z,75.70
2019-06-10T00:09:51.072Z,75.90
2019-06-10T00:12:21.048Z,76.00
2019-06-10T00:14:51.392Z,76.20
2019-06-10T00:17:21.722Z,76.50
2019-06-10T00:19:52.074Z,76.60
2019-06-10T00:22:22.670Z,76.40
2019-06-10T00:24:52.961Z,76.80
2019-06-10T00:27:24.476Z,76.90
2019-06-10T00:29:54.777Z,77.00
2019-06-10T00:32:26.239Z,76.60
2019-06-10T00:34:56.505Z,76.90
2019-06-10T00:37:26.828Z,77.80
2019-06-10T00:39:59.902Z,76.80
2019-06-10T00:42:31.437Z,77.00
2019-06-10T00:45:05.320Z,77.00
2019-06-10T00:47:33.909Z,77.10
2019-06-10T00:50:08.140Z,77.40
2019-06-10T00:52:36.317Z,77.40
2019-06-10T00:55:07.730Z,77.50
2019-06-10T00:57:38.702Z,77.50
2019-06-10T01:00:19.250Z,77.70
2019-06-10T01:02:42.032Z,77.60
2019-06-10T01:05:14.940Z,78.00
2019-06-10T01:07:44.409Z,78.30
2019-06-10T01:10:15.589Z,78.90
2019-06-10T01:12:45.891Z,78.60
2019-06-10T01:15:16.389Z,78.90
2019-06-10T01:17:46.733Z,78.90
2019-06-10T01:20:17.081Z,78.90
2019-06-10T01:22:47.665Z,79.10
2019-06-10T01:25:18.066Z,80.10
2019-06-10T01:27:48.439Z,79.20
2019-06-10T01:30:24.521Z,79.60
2019-06-10T01:32:50.982Z,79.60
2019-06-10T01:35:21.359Z,80.00
2019-06-10T01:37:52.002Z,80.10
2019-06-10T01:40:22.388Z,80.20
2019-06-10T01:42:52.814Z,80.70
2019-06-10T01:45:23.114Z,81.30
2019-06-10T01:47:53.539Z,81.40
2019-06-10T01:50:23.862Z,82.00
2019-06-10T01:52:54.156Z,81.60
2019-06-10T01:55:24.606Z,81.60
2019-06-10T01:57:54.942Z,81.80
2019-06-10T02:00:31.517Z,82.50
2019-06-10T02:03:03.659Z,82.90
2019-06-10T02:05:33.817Z,83.60
2019-06-10T02:08:04.127Z,84.00
2019-06-10T02:10:34.419Z,83.60
2019-06-10T02:13:04.814Z,83.70
2019-06-10T02:15:35.114Z,83.40
2019-06-10T02:18:05.443Z,83.60
2019-06-10T02:20:35.848Z,83.10
2019-06-10T02:23:06.316Z,83.00
2019-06-10T02:25:37.623Z,83.40
2019-06-10T02:28:11.852Z,83.70
2019-06-10T02:30:50.121Z,84.00
2019-06-10T02:33:17.280Z,84.00
2019-06-10T02:35:49.006Z,85.10
2019-06-10T02:38:22.545Z,83.50
2019-06-10T02:40:49.204Z,83.20
2019-06-10T02:43:29.409Z,83.20
2019-06-10T02:45:54.010Z,83.50
2019-06-10T02:48:30.135Z,83.70
2019-06-10T02:51:04.265Z,83.90
2019-06-10T02:53:36.641Z,84.30
2019-06-10T02:56:09.398Z,84.60
2019-06-10T02:58:41.540Z,84.90
2019-06-10T03:01:16.342Z,85.20
2019-06-10T03:03:49.510Z,85.40
2019-06-10T03:06:20.181Z,85.80
2019-06-10T03:08:49.936Z,86.10
2019-06-10T03:11:22.267Z,86.40
2019-06-10T03:13:53.103Z,86.70
2019-06-10T03:16:34.617Z,86.70
2019-06-10T03:19:04.973Z,87.10
2019-06-10T03:21:35.301Z,87.40
2019-06-10T03:24:05.601Z,87.60
2019-06-10T03:26:35.897Z,87.70
2019-06-10T03:29:05.865Z,88.10
2019-06-10T03:31:41.856Z,87.90
2019-06-10T03:34:08.231Z,88.30
2019-06-10T03:36:40.069Z,88.50
2019-06-10T03:39:13.116Z,88.30
2019-06-10T03:41:42.558Z,88.70
2019-06-10T03:44:13.308Z,89.10
2019-06-10T03:46:43.697Z,89.30
2019-06-10T03:49:14.028Z,89.80
2019-06-10T03:51:44.432Z,89.70
2019-06-10T03:54:14.801Z,89.90
2019-06-10T03:56:45.109Z,90.00
2019-06-10T03:59:15.400Z,90.20
2019-06-10T04:01:45.702Z,90.70
2019-06-10T04:04:17.320Z,90.70
2019-06-10T04:06:47.970Z,91.20
2019-06-10T04:09:19.453Z,91.40
2019-06-10T04:11:49.855Z,91.20
2019-06-10T04:14:22.149Z,91.10
2019-06-10T04:16:52.513Z,91.20
2019-06-10T04:19:25.369Z,91.40
2019-06-10T04:21:55.010Z,91.40
2019-06-10T04:24:26.629Z,91.40
2019-06-10T04:26:57.389Z,91.50
2019-06-10T04:29:29.033Z,91.50
2019-06-10T04:31:59.445Z,91.60
2019-06-10T04:34:33.251Z,92.00
2019-06-10T04:37:03.153Z,91.70
2019-06-10T04:39:33.805Z,92.40
2019-06-10T04:42:04.152Z,92.40
2019-06-10T04:44:35.049Z,92.10
2019-06-10T04:47:05.906Z,92.50
2019-06-10T04:49:36.281Z,92.30
2019-06-10T04:52:06.173Z,92.30
2019-06-10T04:54:36.550Z,92.80
2019-06-10T04:57:06.503Z,92.80
2019-06-10T04:59:36.896Z,92.70
2019-06-10T05:02:07.316Z,92.60
2019-06-10T05:04:37.813Z,92.70
2019-06-10T05:07:08.220Z,92.90
2019-06-10T05:09:38.650Z,92.60
2019-06-10T05:12:12.026Z,93.00
2019-06-10T05:14:43.297Z,93.00
2019-06-10T05:17:13.398Z,93.30
2019-06-10T05:19:43.722Z,93.30
2019-06-10T05:22:14.118Z,93.20
2019-06-10T05:24:44.445Z,93.60
2019-06-10T05:27:14.822Z,93.30
2019-06-10T05:29:45.211Z,93.40
2019-06-10T05:32:15.510Z,93.30
2019-06-10T05:34:45.846Z,93.50
2019-06-10T05:37:16.279Z,93.50
2019-06-10T05:39:46.613Z,93.60
2019-06-10T05:42:16.936Z,93.80
2019-06-10T05:44:47.257Z,94.00
2019-06-10T05:47:17.725Z,94.00
2019-06-10T05:49:48.069Z,94.30
2019-06-10T05:52:18.393Z,94.40
2019-06-10T05:54:48.713Z,94.60
2019-06-10T05:57:19.013Z,94.90
2019-06-10T05:59:51.888Z,95.10
2019-06-10T06:02:23.891Z,95.00
2019-06-10T06:04:54.458Z,95.10
2019-06-10T06:07:25.213Z,95.60
2019-06-10T06:09:55.501Z,95.10
2019-06-10T06:12:27.397Z,95.10
2019-06-10T06:14:57.757Z,95.20
2019-06-10T06:17:28.153Z,95.70
2019-06-10T06:19:58.436Z,95.40
2019-06-10T06:22:29.500Z,95.70
2019-06-10T06:24:59.850Z,95.50
2019-06-10T06:27:31.381Z,95.50
2019-06-10T06:30:06.973Z,95.60
2019-06-10T06:32:36.376Z,95.60
2019-06-10T06:35:06.176Z,96.10
2019-06-10T06:37:39.448Z,95.40
2019-06-10T06:40:08.995Z,94.80
2019-06-10T06:42:43.298Z,94.70
2019-06-10T06:45:13.337Z,94.70
2019-06-10T06:47:43.932Z,94.90
2019-06-10T06:50:14.770Z,94.50
2019-06-10T06:53:15.346Z,94.60
2019-06-10T06:55:17.505Z,94.90
2019-06-10T06:57:47.810Z,94.70
2019-06-10T07:00:38.201Z,94.60
2019-06-10T07:02:52.817Z,94.50
2019-06-10T07:05:22.956Z,94.10
2019-06-10T07:07:53.602Z,93.70
2019-06-10T07:10:24.216Z,93.60
2019-06-10T07:12:56.117Z,93.20
2019-06-10T07:15:39.683Z,93.30
2019-06-10T07:18:12.845Z,93.30
2019-06-10T07:20:45.569Z,93.30
2019-06-10T07:23:15.414Z,93.40
2019-06-10T07:25:47.450Z,93.20
2019-06-10T07:28:17.713Z,93.10
2019-06-10T07:30:52.860Z,93.10
2019-06-10T07:33:22.542Z,92.90
2019-06-10T07:35:52.847Z,92.70
2019-06-10T07:38:26.219Z,92.80
2019-06-10T07:40:56.254Z,93.10
2019-06-10T07:43:27.663Z,93.20
2019-06-10T07:45:58.010Z,93.20
2019-06-10T07:48:28.307Z,92.40
2019-06-10T07:50:58.630Z,92.20
2019-06-10T07:53:28.958Z,91.90
2019-06-10T07:55:59.401Z,92.10
2019-06-10T07:58:29.741Z,91.80
2019-06-10T08:01:02.599Z,91.70
2019-06-10T08:03:34.955Z,92.00
2019-06-10T08:06:05.261Z,91.70
2019-06-10T08:08:36.635Z,91.80
2019-06-10T08:11:07.261Z,92.10
2019-06-10T08:13:37.648Z,92.60
2019-06-10T08:16:07.977Z,92.00
2019-06-10T08:18:51.098Z,91.80
2019-06-10T08:21:12.256Z,91.50
2019-06-10T08:23:46.881Z,91.30
2019-06-10T08:26:15.953Z,91.30
2019-06-10T08:28:47.945Z,91.30
2019-06-10T08:31:18.686Z,91.10
2019-06-10T08:33:53.449Z,91.00
2019-06-10T08:36:23.166Z,90.50
2019-06-10T08:38:53.523Z,90.30
2019-06-10T08:41:23.855Z,90.50
2019-06-10T08:46:37.173Z,90.40
2019-06-10T08:49:07.587Z,90.70
2019-06-10T08:51:39.564Z,90.70
2019-06-10T08:54:12.639Z,90.30
2019-06-10T08:56:45.576Z,90.20
2019-06-10T08:59:14.073Z,89.20
2019-06-10T09:01:48.348Z,89.10
2019-06-10T09:04:16.521Z,88.60
2019-06-10T09:06:49.563Z,88.90
2019-06-10T09:09:18.818Z,89.10
2019-06-10T09:11:53.890Z,89.60
2019-06-10T09:16:41.908Z,89.60
2019-06-10T09:19:09.634Z,89.20
2019-06-10T09:21:45.940Z,88.70
2019-06-10T09:24:13.146Z,88.60
2019-06-10T09:26:45.028Z,87.80
2019-06-10T09:29:15.593Z,87.40
2019-06-10T09:31:49.612Z,87.00
2019-06-10T09:34:17.873Z,86.70
2019-06-10T09:36:53.059Z,86.50
2019-06-10T09:39:20.159Z,86.70
2019-06-10T09:42:00.042Z,87.30
2019-06-10T09:44:22.906Z,85.80
2019-06-10T09:46:56.421Z,86.00
2019-06-10T09:49:27.213Z,84.80
2019-06-10T09:51:58.734Z,83.80
2019-06-10T09:54:29.132Z,83.80
2019-06-10T09:57:02.255Z,83.60
2019-06-10T09:59:32.246Z,83.70
2019-06-10T10:02:06.178Z,83.80
2019-06-10T10:04:37.514Z,83.30
2019-06-10T10:07:07.888Z,81.90
2019-06-10T10:09:42.097Z,81.60
2019-06-10T10:12:13.308Z,80.60
2019-06-10T10:14:46.036Z,80.00
2019-06-10T10:17:15.625Z,80.80
2019-06-10T10:19:48.673Z,80.30
2019-06-10T10:22:17.930Z,80.80
2019-06-10T10:24:49.315Z,81.10
2019-06-10T10:27:19.693Z,79.80
2019-06-10T10:29:52.336Z,79.40
2019-06-10T10:32:23.453Z,79.00
2019-06-10T10:34:56.430Z,79.30
2019-06-10T10:37:27.450Z,78.60
2019-06-10T10:39:59.416Z,77.90
2019-06-10T10:42:42.633Z,78.00
2019-06-10T10:45:04.360Z,78.40
2019-06-10T10:47:34.677Z,77.40
2019-06-10T10:50:28.977Z,76.80
2019-06-10T10:53:00.463Z,76.50
2019-06-10T10:55:32.740Z,75.60
2019-06-10T10:58:03.233Z,74.70
2019-06-10T11:00:49.274Z,74.90
2019-06-10T11:03:17.405Z,74.50
2019-06-10T11:05:49.905Z,73.80
2019-06-10T11:08:19.518Z,73.70
2019-06-10T11:10:57.380Z,74.60
2019-06-10T11:13:26.049Z,74.80
2019-06-10T11:15:57.107Z,74.80
2019-06-10T11:18:28.310Z,73.30
2019-06-10T11:21:01.715Z,72.80
2019-06-10T11:23:33.657Z,73.10
2019-06-10T11:26:02.771Z,73.10
2019-06-10T11:28:33.138Z,72.20
2019-06-10T11:31:04.716Z,71.40
2019-06-10T11:33:35.266Z,71.70
2019-06-10T11:36:05.579Z,71.80
2019-06-10T11:38:36.105Z,71.10
2019-06-10T11:41:06.379Z,70.20
2019-06-10T11:43:36.769Z,70.80
2019-06-10T11:46:08.079Z,70.10
2019-06-10T11:48:39.022Z,70.00
2019-06-10T11:51:09.326Z,68.50
2019-06-10T11:53:40.012Z,68.90
2019-06-10T11:56:12.830Z,68.50
2019-06-10T11:58:43.619Z,68.90
2019-06-10T12:01:14.054Z,68.40
2019-06-10T12:03:44.417Z,68.40
2019-06-10T12:06:14.755Z,68.40
2019-06-10T12:08:45.149Z,67.50
2019-06-10T12:11:15.517Z,67.70
2019-06-10T12:13:45.859Z,65.90
2019-06-10T12:18:49.045Z,65.80
2019-06-10T12:21:19.466Z,66.50
2019-06-10T12:23:49.810Z,66.10
2019-06-10T12:26:23.258Z,65.70
2019-06-10T12:28:56.298Z,65.50
2019-06-10T12:31:25.691Z,65.50
2019-06-10T12:33:57.631Z,64.30
2019-06-10T12:36:28.061Z,63.70
2019-06-10T12:39:06.401Z,63.40
2019-06-10T12:41:30.429Z,63.60
2019-06-10T12:44:02.920Z,64.00
2019-06-10T12:46:32.863Z,63.30
2019-06-10T12:49:08.199Z,62.10
2019-06-10T12:51:35.214Z,62.80
2019-06-10T12:54:06.353Z,62.90
2019-06-10T12:56:36.954Z,62.30
2019-06-10T12:59:10.000Z,61.30
2019-06-10T13:01:40.210Z,60.90
2019-06-10T13:04:13.545Z,61.00
2019-06-10T13:06:43.991Z,60.30
2019-06-10T13:09:14.496Z,60.80
2019-06-10T13:11:44.820Z,60.30
2019-06-10T13:14:18.183Z,60.00
2019-06-10T13:16:47.401Z,60.30
2019-06-10T13:19:17.708Z,59.90
2019-06-10T13:21:57.309Z,60.80
2019-06-10T13:24:37.854Z,61.70
2019-06-10T13:27:22.734Z,60.90
2019-06-10T13:30:04.170Z,59.70
2019-06-10T13:32:52.678Z,58.90
2019-06-10T13:35:33.536Z,59.30
2019-06-10T13:38:11.314Z,59.20
2019-06-10T13:40:59.487Z,59.60
2019-06-10T13:43:39.511Z,57.90
2019-06-10T13:46:15.879Z,59.30
2019-06-10T13:49:06.827Z,59.40
2019-06-10T13:51:43.952Z,59.00
2019-06-10T13:54:14.241Z,58.60
2019-06-10T13:56:47.306Z,58.40
2019-06-10T13:59:16.281Z,58.70
2019-06-10T14:01:46.591Z,58.20
2019-06-10T14:04:21.836Z,57.40
2019-06-10T14:06:53.315Z,57.30
2019-06-10T14:09:23.142Z,57.20
2019-06-10T14:11:54.114Z,57.60
2019-06-10T14:14:28.997Z,58.10
2019-06-10T14:17:01.165Z,57.50
2019-06-10T14:19:37.806Z,57.20
2019-06-10T14:22:15.717Z,57.50
2019-06-10T14:24:45.455Z,58.20
2019-06-10T14:27:21.339Z,58.20
2019-06-10T14:29:52.738Z,58.20
2019-06-10T14:32:22.481Z,58.50
2019-06-10T14:34:54.145Z,58.30
2019-06-10T14:37:38.044Z,58.50
2019-06-10T14:39:56.493Z,58.20
2019-06-10T14:42:26.843Z,58.80
2019-06-10T14:44:57.169Z,58.60
2019-06-10T14:47:27.502Z,58.70
2019-06-10T14:49:58.532Z,58.80
2019-06-10T14:52:28.974Z,58.90
2019-06-10T14:54:59.307Z,58.50
2019-06-10T14:57:29.614Z,58.70
2019-06-10T15:00:02.709Z,59.10
2019-06-10T15:02:33.402Z,59.30
2019-06-10T15:05:03.895Z,59.40
2019-06-10T15:07:35.510Z,59.30
2019-06-10T15:10:07.551Z,59.60
2019-06-10T15:12:38.046Z,59.80
2019-06-10T15:15:10.199Z,59.50
2019-06-10T15:17:43.069Z,60.10
2019-06-10T15:20:13.677Z,60.40
2019-06-10T15:22:44.138Z,60.70
2019-06-10T15:25:17.711Z,61.20
2019-06-10T15:27:47.981Z,61.70
2019-06-10T15:30:23.472Z,62.20
2019-06-10T15:32:52.414Z,62.50
2019-06-10T15:35:24.521Z,62.80
2019-06-10T15:37:55.207Z,62.80
2019-06-10T15:40:25.544Z,62.90
2019-06-10T15:42:57.840Z,63.30
2019-06-10T15:45:27.949Z,63.20
2019-06-10T15:47:58.367Z,63.40
2019-06-10T15:50:28.754Z,63.70
2019-06-10T15:52:59.112Z,63.90
2019-06-10T15:55:55.487Z,64.00
2019-06-10T15:58:02.114Z,64.40
2019-06-10T16:00:34.154Z,64.80
2019-06-10T16:03:04.781Z,65.50
2019-06-10T16:05:35.098Z,65.70
2019-06-10T16:08:05.538Z,66.20
2019-06-10T16:10:35.854Z,66.80
2019-06-10T16:13:05.745Z,66.70
2019-06-10T16:15:36.380Z,67.30
2019-06-10T16:18:06.341Z,67.10
2019-06-10T16:20:36.671Z,67.10
2019-06-10T16:23:06.658Z,67.50
2019-06-10T16:25:37.086Z,67.80
2019-06-10T16:28:08.252Z,68.50
2019-06-10T16:30:38.771Z,68.70
2019-06-10T16:33:09.948Z,69.20
2019-06-10T16:35:40.500Z,69.50
2019-06-10T16:38:12.718Z,69.90
2019-06-10T16:40:43.257Z,70.40
2019-06-10T16:43:13.863Z,70.60
2019-06-10T16:45:44.364Z,71.10
2019-06-10T16:48:14.957Z,71.00
2019-06-10T16:50:47.169Z,71.40
2019-06-10T16:53:17.925Z,71.80
2019-06-10T16:55:49.529Z,72.30
2019-06-10T16:58:21.139Z,72.50
2019-06-10T17:00:51.989Z,72.60
2019-06-10T17:03:25.058Z,72.30
2019-06-10T17:05:54.388Z,72.50
2019-06-10T17:08:26.906Z,73.60
2019-06-10T17:10:57.874Z,73.40
2019-06-10T17:13:30.236Z,73.20
2019-06-10T17:16:03.170Z,73.70
2019-06-10T17:18:33.665Z,73.30
2019-06-10T17:21:04.363Z,73.70
2019-06-10T17:23:36.485Z,73.40
2019-06-10T17:26:06.875Z,73.40
2019-06-10T17:28:37.315Z,73.60
2019-06-10T17:31:07.851Z,73.80
2019-06-10T17:33:39.026Z,74.10
2019-06-10T17:36:13.365Z,74.60
2019-06-10T17:38:44.257Z,74.60
2019-06-10T17:41:14.650Z,74.60
2019-06-10T17:43:45.269Z,74.70
2019-06-10T17:46:17.862Z,74.80
2019-06-10T17:48:48.222Z,75.00
2019-06-10T17:51:22.357Z,75.20
2019-06-10T17:53:53.108Z,75.40
2019-06-10T17:56:26.676Z,75.40
2019-06-10T17:58:58.937Z,75.20
2019-06-10T18:01:34.231Z,75.90
2019-06-10T18:04:04.334Z,76.10
2019-06-10T18:06:36.461Z,76.10
2019-06-10T18:09:08.208Z,76.20
2019-06-10T18:11:39.700Z,76.50
2019-06-10T18:14:12.155Z,77.00
2019-06-10T18:16:49.116Z,76.70
2019-06-10T18:19:24.210Z,77.30
2019-06-10T18:21:56.076Z,78.20
2019-06-10T18:24:29.138Z,77.80
2019-06-10T18:26:59.530Z,77.90
2019-06-10T18:29:32.353Z,78.10
2019-06-10T18:32:03.489Z,78.50
2019-06-10T18:34:36.211Z,79.00
2019-06-10T18:37:06.026Z,78.90
2019-06-10T18:39:36.426Z,79.30
2019-06-10T18:42:06.861Z,79.30
2019-06-10T18:44:40.095Z,79.50
2019-06-10T18:47:09.489Z,79.80
2019-06-10T18:49:41.100Z,80.10
2019-06-10T18:52:12.661Z,80.40
2019-06-10T18:54:43.657Z,80.30
2019-06-10T18:57:14.131Z,80.50
2019-06-10T18:59:44.437Z,80.80
2019-06-10T19:02:14.820Z,81.00
2019-06-10T19:04:45.184Z,81.30
2019-06-10T19:07:15.591Z,81.60
2019-06-10T19:09:48.019Z,82.50
2019-06-10T19:12:19.294Z,82.20
2019-06-10T19:14:52.164Z,82.90
2019-06-10T19:17:23.127Z,83.10
2019-06-10T19:19:53.721Z,83.50
2019-06-10T19:22:24.279Z,84.30
2019-06-10T19:24:54.644Z,85.00
2019-06-10T19:27:25.049Z,84.60
2019-06-10T19:29:55.383Z,85.00
2019-06-10T19:32:26.787Z,85.70
2019-06-10T19:34:57.137Z,86.10
2019-06-10T19:37:27.442Z,86.20
2019-06-10T19:39:57.783Z,86.50
2019-06-10T19:42:28.147Z,87.10
2019-06-10T19:44:58.485Z,87.20
2019-06-10T19:47:28.851Z,87.70
2019-06-10T19:49:59.207Z,88.30
2019-06-10T19:52:31.665Z,88.50
2019-06-10T19:55:02.647Z,88.90
2019-06-10T19:57:34.352Z,89.90
2019-06-10T20:00:11.697Z,90.10
2019-06-10T20:02:37.959Z,90.10
2019-06-10T20:05:08.657Z,90.20
2019-06-10T20:07:42.238Z,90.30
2019-06-10T20:10:13.262Z,90.40
2019-06-10T20:12:46.348Z,90.50
2019-06-10T20:15:22.689Z,90.60
2019-06-10T20:17:53.210Z,91.00
2019-06-10T20:20:23.945Z,90.90
2019-06-10T20:22:57.371Z,91.20
2019-06-10T20:25:26.311Z,91.40
2019-06-10T20:27:56.601Z,91.60
2019-06-10T20:30:28.892Z,91.80
2019-06-10T20:32:59.199Z,92.10
2019-06-10T20:35:32.486Z,92.10
2019-06-10T20:38:04.617Z,92.30
2019-06-10T20:40:35.473Z,92.40
2019-06-10T20:43:05.621Z,92.50
2019-06-10T20:45:37.514Z,92.80
2019-06-10T20:48:10.958Z,93.00
2019-06-10T20:50:43.728Z,93.30
2019-06-10T20:53:18.302Z,93.20
2019-06-10T20:55:51.267Z,93.50
2019-06-10T20:58:17.395Z,93.50
2019-06-10T21:00:52.314Z,93.60
2019-06-10T21:03:19.905Z,93.90
2019-06-10T21:05:52.950Z,94.20
2019-06-10T21:08:23.895Z,94.20
2019-06-10T21:10:54.680Z,94.50
2019-06-10T21:13:25.123Z,94.60
2019-06-10T21:15:59.110Z,95.00
2019-06-10T21:18:27.820Z,94.90
2019-06-10T21:20:58.156Z,95.10
2019-06-10T21:23:28.613Z,95.40
2019-06-10T21:25:58.938Z,95.60
2019-06-10T21:28:29.250Z,95.90
2019-06-10T21:31:02.504Z,96.00
2019-06-10T21:33:33.232Z,96.30
2019-06-10T21:36:04.015Z,96.10
2019-06-10T21:38:34.382Z,96.40
2019-06-10T21:41:04.725Z,96.50
2019-06-10T21:43:35.117Z,96.80
2019-06-10T21:46:05.559Z,96.90
2019-06-10T21:48:35.859Z,96.80
2019-06-10T21:51:06.497Z,96.80
2019-06-10T21:53:36.827Z,96.60
2019-06-10T21:56:07.605Z,96.90
2019-06-10T21:58:37.989Z,96.70
2019-06-10T22:01:13.193Z,96.80
2019-06-10T22:03:40.503Z,97.00
2019-06-10T22:06:12.365Z,96.90
2019-06-10T22:08:44.072Z,97.00
2019-06-10T22:11:14.561Z,97.00
2019-06-10T22:13:46.104Z,97.10
2019-06-10T22:16:16.493Z,97.00
2019-06-10T22:18:46.828Z,96.90
2019-06-10T22:21:17.288Z,97.00
2019-06-10T22:23:48.681Z,97.60
2019-06-10T22:26:19.144Z,97.50
2019-06-10T22:28:49.578Z,97.80
2019-06-10T22:31:23.632Z,97.90
2019-06-10T22:33:54.258Z,98.10
2019-06-10T22:36:23.906Z,98.30
2019-06-10T22:38:57.758Z,98.40
2019-06-10T22:41:26.253Z,99.10
2019-06-10T22:43:57.560Z,98.90
2019-06-10T22:46:28.111Z,98.90
2019-06-10T22:48:59.447Z,99.30
2019-06-10T22:51:32.771Z,98.90
2019-06-10T22:54:03.571Z,99.10
2019-06-10T22:56:33.883Z,99.70
2019-06-10T22:59:04.234Z,99.60
2019-06-10T23:01:38.238Z,99.70
2019-06-10T23:04:06.635Z,99.90
2019-06-10T23:06:37.030Z,99.90
2019-06-10T23:09:07.844Z,99.90
2019-06-10T23:11:38.357Z,99.90
2019-06-10T23:14:08.689Z,99.90
2019-06-10T23:16:39.090Z,99.90
2019-06-10T23:19:09.470Z,99.90
2019-06-10T23:21:42.442Z,99.90
2019-06-10T23:24:13.463Z,99.90
2019-06-10T23:26:43.947Z,99.90
2019-06-10T23:29:14.262Z,99.90
2019-06-10T23:31:51.707Z,99.90
2019-06-10T23:34:19.761Z,99.90
2019-06-10T23:36:48.595Z,99.90
2019-06-10T23:39:18.980Z,99.90
2019-06-10T23:41:50.449Z,99.90
2019-06-10T23:44:22.915Z,99.90
2019-06-10T23:46:53.392Z,99.90
2019-06-10T23:49:23.705Z,99.90
2019-06-10T23:51:55.488Z,99.90
2019-06-10T23:54:26.350Z,99.90
2019-06-10T23:56:58.663Z,99.90
2019-06-10T23:59:29.147Z,99.90
